MSC Giovanna — 3FRB9 — position and weather

sailwx.info

Track history (hours):
 
Tides and Currents Weather Stations Pressure Air Temp Water Temp Dewpoint Dewpoint Depression Visibility Wind Speed Wind Dir Waves Ship Positions

MSC Giovanna

Last reported at 2017-Mar-23 23:27 UTC. Time now 2017-Mar-25 17:31 UTC.
Position N 40°02' E 026°11'.

Length 178 m; draft 9.7 m.

Type: Ship. MMSI: 357702000.

Date/timePositionNaut miles runAvg speedWind from/ knotsBaromVisibWave heightAir tempDewpointWater temp
2017-Mar-23 23:27N 40°02' E 026°11'  
2017-Mar-18 06:25N 44°23' E 037°16'1315.3
2017-Mar-18 05:33N 44°29' E 037°33'1514.7
2017-Mar-18 04:33N 44°38' E 037°49'6 5.9
2017-Mar-18 03:33N 44°44' E 037°47'0 0.1
2017-Mar-18 02:31N 44°44' E 037°47'0 0.0
2017-Mar-18 01:32N 44°44' E 037°47'0 0.0
2017-Mar-18 00:29N 44°44' E 037°47'0 0.0
2017-Mar-17 23:28N 44°44' E 037°47'0 0.0
2017-Mar-17 22:33N 44°44' E 037°47'0 0.0
2017-Mar-17 21:32N 44°44' E 037°47'0 0.0
2017-Mar-17 20:31N 44°44' E 037°47'0 0.0
2017-Mar-17 19:30N 44°44' E 037°47'0 0.0
2017-Mar-17 18:32N 44°44' E 037°47'0 0.0
2017-Mar-17 17:32N 44°44' E 037°47'0 0.0
2017-Mar-17 16:30N 44°44' E 037°47'0 0.0
2017-Mar-17 15:33N 44°44' E 037°47'0 0.0
2017-Mar-17 14:33N 44°44' E 037°47'0 0.0
2017-Mar-17 13:31N 44°44' E 037°47'0 0.0
2017-Mar-17 12:31N 44°44' E 037°47'0 0.0
2017-Mar-17 11:31N 44°44' E 037°47'0 0.0
2017-Mar-17 10:32N 44°44' E 037°47'0 0.0
2017-Mar-17 09:33N 44°44' E 037°47'0 0.0
2017-Mar-17 08:29N 44°44' E 037°47'0 0.0
2017-Mar-17 07:33N 44°44' E 037°47'0 0.0
2017-Mar-17 06:30N 44°44' E 037°47'0 0.0
2017-Mar-17 05:30N 44°44' E 037°47'0 0.0
2017-Mar-17 04:30N 44°44' E 037°47'0 0.5
2017-Mar-17 03:33N 44°43' E 037°47'7 7.3
2017-Mar-17 02:34N 44°37' E 037°51'9 8.9
2017-Mar-17 01:34N 44°35' E 037°39'1211.6
2017-Mar-17 00:34N 44°24' E 037°32'1312.7
2017-Mar-16 23:32N 44°19' E 037°15'41413.7
2017-Mar-15 17:14N 41°02' E 028°60'6 9.1
2017-Mar-15 16:33N 40°55' E 028°59'7 7.3
2017-Mar-15 15:33N 40°48' E 028°60'0 0.2
2017-Mar-15 14:32N 40°48' E 028°60'0 0.1
2017-Mar-15 13:31N 40°48' E 028°60'0 0.3
2017-Mar-15 12:30N 40°48' E 028°60'3 3.1
2017-Mar-15 11:33N 40°46' E 029°03'1 1.3
2017-Mar-15 10:33N 40°46' E 029°01'3 2.5
2017-Mar-15 09:33N 40°44' E 028°58'1 0.8
2017-Mar-15 08:21N 40°45' E 028°59'0 0.6
2017-Mar-15 07:32N 40°45' E 028°60'1 0.8
2017-Mar-15 06:29N 40°46' E 029°00'1 0.7
2017-Mar-15 05:33N 40°46' E 029°01'1 0.6
2017-Mar-15 04:28N 40°47' E 029°01'0 0.3
2017-Mar-15 03:30N 40°47' E 029°02'0 0.3
2017-Mar-15 02:32N 40°47' E 029°01'0 0.2
2017-Mar-15 01:32N 40°47' E 029°01'0 0.2
2017-Mar-15 00:33N 40°47' E 029°02'0 0.2
2017-Mar-14 23:29N 40°47' E 029°01'0 0.1
2017-Mar-14 22:33N 40°47' E 029°01'0 0.4
2017-Mar-14 21:30N 40°47' E 029°02'0 0.3
2017-Mar-14 20:32N 40°47' E 029°02'0 0.2
2017-Mar-14 19:33N 40°47' E 029°02'0 0.3
2017-Mar-14 18:33N 40°47' E 029°02'8 8.2
2017-Mar-14 17:33N 40°46' E 029°12'1110.8
2017-Mar-14 16:33N 40°45' E 029°27'4 0.4
2017-Mar-14 06:14N 40°46' E 029°32'0 0.0
2017-Mar-14 05:28N 40°46' E 029°32'0 0.0
2017-Mar-14 04:33N 40°46' E 029°32'7 7.0
2017-Mar-14 03:31N 40°43' E 029°23'1111.6
2017-Mar-14 02:33N 40°43' E 029°08'  
Track history (hours):
 
Tides and Currents Weather Stations Pressure Air Temp Water Temp Dewpoint Dewpoint Depression Visibility Wind Speed Wind Dir Waves Ship Positions

MSC Giovanna

Last reported at 2017-Mar-23 23:27 UTC. Time now 2017-Mar-25 17:31 UTC.
Position N 40°02' E 026°11'.

Length 178 m; draft 9.7 m.

Type: Ship. MMSI: 357702000.

Date/timePositionNaut miles runAvg speedWind from/ knotsBaromVisibWave heightAir tempDewpointWater temp
2017-Mar-23 23:27N 40°02' E 026°11'  
2017-Mar-18 06:25N 44°23' E 037°16'1315.3
2017-Mar-18 05:33N 44°29' E 037°33'1514.7
2017-Mar-18 04:33N 44°38' E 037°49'6 5.9
2017-Mar-18 03:33N 44°44' E 037°47'0 0.1
2017-Mar-18 02:31N 44°44' E 037°47'0 0.0
2017-Mar-18 01:32N 44°44' E 037°47'0 0.0
2017-Mar-18 00:29N 44°44' E 037°47'0 0.0
2017-Mar-17 23:28N 44°44' E 037°47'0 0.0
2017-Mar-17 22:33N 44°44' E 037°47'0 0.0
2017-Mar-17 21:32N 44°44' E 037°47'0 0.0
2017-Mar-17 20:31N 44°44' E 037°47'0 0.0
2017-Mar-17 19:30N 44°44' E 037°47'0 0.0
2017-Mar-17 18:32N 44°44' E 037°47'0 0.0
2017-Mar-17 17:32N 44°44' E 037°47'0 0.0
2017-Mar-17 16:30N 44°44' E 037°47'0 0.0
2017-Mar-17 15:33N 44°44' E 037°47'0 0.0
2017-Mar-17 14:33N 44°44' E 037°47'0 0.0
2017-Mar-17 13:31N 44°44' E 037°47'0 0.0
2017-Mar-17 12:31N 44°44' E 037°47'0 0.0
2017-Mar-17 11:31N 44°44' E 037°47'0 0.0
2017-Mar-17 10:32N 44°44' E 037°47'0 0.0
2017-Mar-17 09:33N 44°44' E 037°47'0 0.0
2017-Mar-17 08:29N 44°44' E 037°47'0 0.0
2017-Mar-17 07:33N 44°44' E 037°47'0 0.0
2017-Mar-17 06:30N 44°44' E 037°47'0 0.0
2017-Mar-17 05:30N 44°44' E 037°47'0 0.0
2017-Mar-17 04:30N 44°44' E 037°47'0 0.5
2017-Mar-17 03:33N 44°43' E 037°47'7 7.3
2017-Mar-17 02:34N 44°37' E 037°51'9 8.9
2017-Mar-17 01:34N 44°35' E 037°39'1211.6
2017-Mar-17 00:34N 44°24' E 037°32'1312.7
2017-Mar-16 23:32N 44°19' E 037°15'41413.7
2017-Mar-15 17:14N 41°02' E 028°60'6 9.1
2017-Mar-15 16:33N 40°55' E 028°59'7 7.3
2017-Mar-15 15:33N 40°48' E 028°60'0 0.2
2017-Mar-15 14:32N 40°48' E 028°60'0 0.1
2017-Mar-15 13:31N 40°48' E 028°60'0 0.3
2017-Mar-15 12:30N 40°48' E 028°60'3 3.1
2017-Mar-15 11:33N 40°46' E 029°03'1 1.3
2017-Mar-15 10:33N 40°46' E 029°01'3 2.5
2017-Mar-15 09:33N 40°44' E 028°58'1 0.8
2017-Mar-15 08:21N 40°45' E 028°59'0 0.6
2017-Mar-15 07:32N 40°45' E 028°60'1 0.8
2017-Mar-15 06:29N 40°46' E 029°00'1 0.7
2017-Mar-15 05:33N 40°46' E 029°01'1 0.6
2017-Mar-15 04:28N 40°47' E 029°01'0 0.3
2017-Mar-15 03:30N 40°47' E 029°02'0 0.3
2017-Mar-15 02:32N 40°47' E 029°01'0 0.2
2017-Mar-15 01:32N 40°47' E 029°01'0 0.2
2017-Mar-15 00:33N 40°47' E 029°02'0 0.2
2017-Mar-14 23:29N 40°47' E 029°01'0 0.1
2017-Mar-14 22:33N 40°47' E 029°01'0 0.4
2017-Mar-14 21:30N 40°47' E 029°02'0 0.3
2017-Mar-14 20:32N 40°47' E 029°02'0 0.2
2017-Mar-14 19:33N 40°47' E 029°02'0 0.3
2017-Mar-14 18:33N 40°47' E 029°02'8 8.2
2017-Mar-14 17:33N 40°46' E 029°12'1110.8
2017-Mar-14 16:33N 40°45' E 029°27'4 0.4
2017-Mar-14 06:14N 40°46' E 029°32'0 0.0
2017-Mar-14 05:28N 40°46' E 029°32'0 0.0
2017-Mar-14 04:33N 40°46' E 029°32'7 7.0
2017-Mar-14 03:31N 40°43' E 029°23'1111.6
2017-Mar-14 02:33N 40°43' E 029°08'  

Dump ship's entire track history